sensor_id;sensor_type;location;lat;lon;timestamp;pressure;altitude;pressure_sealevel;temperature;humidity
30636;BME280;17400;52.392;9.750;2023-07-30T00:00:38;100174.44;;;19.35;100.00
30636;BME280;17400;52.392;9.750;2023-07-30T00:03:06;100175.53;;;19.34;100.00
30636;BME280;17400;52.392;9.750;2023-07-30T00:05:35;100176.09;;;19.31;100.00
30636;BME280;17400;52.392;9.750;2023-07-30T00:08:03;100173.88;;;19.28;100.00
30636;BME280;17400;52.392;9.750;2023-07-30T00:10:32;100176.03;;;19.21;100.00
30636;BME280;17400;52.392;9.750;2023-07-30T00:13:02;100187.81;;;19.16;100.00
30636;BME280;17400;52.392;9.750;2023-07-30T00:15:30;100186.44;;;19.13;100.00
30636;BME280;17400;52.392;9.750;2023-07-30T00:17:58;100182.59;;;19.09;100.00
30636;BME280;17400;52.392;9.750;2023-07-30T00:20:26;100185.31;;;19.09;100.00
30636;BME280;17400;52.392;9.750;2023-07-30T00:22:54;100180.41;;;19.17;100.00
30636;BME280;17400;52.392;9.750;2023-07-30T00:25:22;100173.88;;;19.28;100.00
30636;BME280;17400;52.392;9.750;2023-07-30T00:27:54;100172.28;;;19.37;100.00
30636;BME280;17400;52.392;9.750;2023-07-30T00:30:22;100178.34;;;19.50;100.00
30636;BME280;17400;52.392;9.750;2023-07-30T00:32:50;100173.97;;;19.59;100.00
30636;BME280;17400;52.392;9.750;2023-07-30T00:35:18;100173.97;;;19.59;100.00
30636;BME280;17400;52.392;9.750;2023-07-30T00:37:46;100163.56;;;19.61;100.00
30636;BME280;17400;52.392;9.750;2023-07-30T00:40:14;100170.13;;;19.60;100.00
30636;BME280;17400;52.392;9.750;2023-07-30T00:42:42;100176.44;;;19.60;100.00
30636;BME280;17400;52.392;9.750;2023-07-30T00:45:11;100176.19;;;19.67;100.00
30636;BME280;17400;52.392;9.750;2023-07-30T00:47:39;100175.09;;;19.73;100.00
30636;BME280;17400;52.392;9.750;2023-07-30T00:50:10;100172.06;;;19.70;100.00
30636;BME280;17400;52.392;9.750;2023-07-30T00:52:40;100187.47;;;19.71;100.00
30636;BME280;17400;52.392;9.750;2023-07-30T00:55:09;100178.41;;;19.70;100.00
30636;BME280;17400;52.392;9.750;2023-07-30T00:57:37;100180.03;;;19.66;100.00
30636;BME280;17400;52.392;9.750;2023-07-30T01:00:06;100192.41;;;19.63;100.00
30636;BME280;17400;52.392;9.750;2023-07-30T01:02:37;100198.41;;;19.60;100.00
30636;BME280;17400;52.392;9.750;2023-07-30T01:05:06;100194.28;;;19.58;100.00
30636;BME280;17400;52.392;9.750;2023-07-30T01:07:34;100191.56;;;19.63;100.00
30636;BME280;17400;52.392;9.750;2023-07-30T01:10:02;100194.88;;;19.65;100.00
30636;BME280;17400;52.392;9.750;2023-07-30T01:12:31;100192.06;;;19.50;100.00
30636;BME280;17400;52.392;9.750;2023-07-30T01:15:01;100192.88;;;19.40;100.00
30636;BME280;17400;52.392;9.750;2023-07-30T01:17:30;100196.09;;;19.26;100.00
30636;BME280;17400;52.392;9.750;2023-07-30T01:20:00;100203.22;;;19.17;100.00
30636;BME280;17400;52.392;9.750;2023-07-30T01:22:31;100207.56;;;19.18;100.00
30636;BME280;17400;52.392;9.750;2023-07-30T01:24:59;100213.34;;;19.17;100.00
30636;BME280;17400;52.392;9.750;2023-07-30T01:27:29;100222.09;;;19.13;100.00
30636;BME280;17400;52.392;9.750;2023-07-30T01:30:03;100222.38;;;19.12;100.00
30636;BME280;17400;52.392;9.750;2023-07-30T01:32:34;100220.75;;;19.16;100.00
30636;BME280;17400;52.392;9.750;2023-07-30T01:35:04;100228.69;;;19.12;100.00
30636;BME280;17400;52.392;9.750;2023-07-30T01:37:38;100225.94;;;19.12;100.00
30636;BME280;17400;52.392;9.750;2023-07-30T01:40:09;100228.38;;;19.09;100.00
30636;BME280;17400;52.392;9.750;2023-07-30T01:42:37;100222.34;;;19.07;100.00
30636;BME280;17400;52.392;9.750;2023-07-30T01:45:06;100232.47;;;19.01;100.00
30636;BME280;17400;52.392;9.750;2023-07-30T01:47:34;100231.31;;;18.92;100.00
30636;BME280;17400;52.392;9.750;2023-07-30T01:50:03;100223.91;;;18.92;100.00
30636;BME280;17400;52.392;9.750;2023-07-30T01:52:33;100229.66;;;18.91;100.00
30636;BME280;17400;52.392;9.750;2023-07-30T01:55:03;100228.00;;;18.90;100.00
30636;BME280;17400;52.392;9.750;2023-07-30T01:57:31;100234.31;;;18.90;100.00
30636;BME280;17400;52.392;9.750;2023-07-30T01:59:59;100240.56;;;18.86;100.00
30636;BME280;17400;52.392;9.750;2023-07-30T02:02:27;100234.00;;;18.87;100.00
30636;BME280;17400;52.392;9.750;2023-07-30T02:04:55;100236.97;;;18.85;100.00
30636;BME280;17400;52.392;9.750;2023-07-30T02:07:23;100247.09;;;18.79;100.00
30636;BME280;17400;52.392;9.750;2023-07-30T02:09:52;100244.03;;;18.76;100.00
30636;BME280;17400;52.392;9.750;2023-07-30T02:12:22;100244.88;;;18.76;100.00
30636;BME280;17400;52.392;9.750;2023-07-30T02:14:50;100237.47;;;18.77;100.00
30636;BME280;17400;52.392;9.750;2023-07-30T02:17:18;100238.81;;;18.74;100.00
30636;BME280;17400;52.392;9.750;2023-07-30T02:19:46;100245.41;;;18.73;100.00
30636;BME280;17400;52.392;9.750;2023-07-30T02:22:14;100239.91;;;18.73;100.00
30636;BME280;17400;52.392;9.750;2023-07-30T02:24:42;100238.25;;;18.67;100.00
30636;BME280;17400;52.392;9.750;2023-07-30T02:27:10;100242.03;;;18.61;100.00
30636;BME280;17400;52.392;9.750;2023-07-30T02:29:40;100248.31;;;18.56;100.00
30636;BME280;17400;52.392;9.750;2023-07-30T02:32:08;100237.91;;;18.58;100.00
30636;BME280;17400;52.392;9.750;2023-07-30T02:34:36;100246.97;;;18.59;100.00
30636;BME280;17400;52.392;9.750;2023-07-30T02:37:04;100245.84;;;18.60;100.00
30636;BME280;17400;52.392;9.750;2023-07-30T02:39:32;100244.47;;;18.57;100.00
30636;BME280;17400;52.392;9.750;2023-07-30T02:42:00;100246.59;;;18.50;100.00
30636;BME280;17400;52.392;9.750;2023-07-30T02:44:29;100249.63;;;18.48;100.00
30636;BME280;17400;52.392;9.750;2023-07-30T02:46:58;100250.75;;;18.53;100.00
30636;BME280;17400;52.392;9.750;2023-07-30T02:49:26;100243.59;;;18.52;100.00
30636;BME280;17400;52.392;9.750;2023-07-30T02:51:54;100255.41;;;18.52;100.00
30636;BME280;17400;52.392;9.750;2023-07-30T02:54:22;100252.63;;;18.47;100.00
30636;BME280;17400;52.392;9.750;2023-07-30T02:56:50;100252.31;;;18.43;100.00
30636;BME280;17400;52.392;9.750;2023-07-30T02:59:18;100253.97;;;18.44;100.00
30636;BME280;17400;52.392;9.750;2023-07-30T03:01:46;100256.13;;;18.42;100.00
30636;BME280;17400;52.392;9.750;2023-07-30T03:04:15;100259.13;;;18.41;100.00
30636;BME280;17400;52.392;9.750;2023-07-30T03:06:43;100248.38;;;18.34;100.00
30636;BME280;17400;52.392;9.750;2023-07-30T03:09:11;100246.19;;;18.31;100.00
30636;BME280;17400;52.392;9.750;2023-07-30T03:11:39;100254.41;;;18.31;100.00
30636;BME280;17400;52.392;9.750;2023-07-30T03:14:07;100251.13;;;18.34;100.00
30636;BME280;17400;52.392;9.750;2023-07-30T03:16:35;100258.50;;;18.34;100.00
30636;BME280;17400;52.392;9.750;2023-07-30T03:19:03;100268.59;;;18.28;100.00
30636;BME280;17400;52.392;9.750;2023-07-30T03:21:33;100261.47;;;18.27;100.00
30636;BME280;17400;52.392;9.750;2023-07-30T03:24:01;100263.66;;;18.25;100.00
30636;BME280;17400;52.392;9.750;2023-07-30T03:26:29;100270.78;;;18.26;100.00
30636;BME280;17400;52.392;9.750;2023-07-30T03:28:57;100268.28;;;18.24;100.00
30636;BME280;17400;52.392;9.750;2023-07-30T03:31:25;100270.22;;;18.24;100.00
30636;BME280;17400;52.392;9.750;2023-07-30T03:33:55;100271.03;;;18.24;100.00
30636;BME280;17400;52.392;9.750;2023-07-30T03:36:23;100275.09;;;18.17;100.00
30636;BME280;17400;52.392;9.750;2023-07-30T03:38:52;100279.72;;;18.16;100.00
30636;BME280;17400;52.392;9.750;2023-07-30T03:41:20;100274.50;;;18.14;100.00
30636;BME280;17400;52.392;9.750;2023-07-30T03:43:48;100275.09;;;18.17;100.00
30636;BME280;17400;52.392;9.750;2023-07-30T03:46:16;100269.59;;;18.17;100.00
30636;BME280;17400;52.392;9.750;2023-07-30T03:48:44;100276.72;;;18.18;100.00
30636;BME280;17400;52.392;9.750;2023-07-30T03:51:12;100269.06;;;18.20;100.00
30636;BME280;17400;52.392;9.750;2023-07-30T03:53:40;100278.69;;;18.22;100.00
30636;BME280;17400;52.392;9.750;2023-07-30T03:56:10;100289.91;;;18.21;100.00
30636;BME280;17400;52.392;9.750;2023-07-30T03:58:38;100289.34;;;18.19;100.00
30636;BME280;17400;52.392;9.750;2023-07-30T04:01:06;100283.59;;;18.20;100.00
30636;BME280;17400;52.392;9.750;2023-07-30T04:03:35;100294.31;;;18.22;100.00
30636;BME280;17400;52.392;9.750;2023-07-30T04:06:03;100284.69;;;18.19;100.00
30636;BME280;17400;52.392;9.750;2023-07-30T04:08:32;100281.97;;;18.19;100.00
30636;BME280;17400;52.392;9.750;2023-07-30T04:11:00;100293.47;;;18.21;100.00
30636;BME280;17400;52.392;9.750;2023-07-30T04:13:29;100288.25;;;18.20;100.00
30636;BME280;17400;52.392;9.750;2023-07-30T04:15:57;100294.81;;;18.19;100.00
30636;BME280;17400;52.392;9.750;2023-07-30T04:18:25;100293.72;;;18.20;100.00
30636;BME280;17400;52.392;9.750;2023-07-30T04:20:54;100295.94;;;18.23;100.00
30636;BME280;17400;52.392;9.750;2023-07-30T04:23:22;100303.09;;;18.24;100.00
30636;BME280;17400;52.392;9.750;2023-07-30T04:25:51;100295.38;;;18.21;100.00
30636;BME280;17400;52.392;9.750;2023-07-30T04:28:19;100299.75;;;18.17;100.00
30636;BME280;17400;52.392;9.750;2023-07-30T04:30:48;100301.91;;;18.14;100.00
30636;BME280;17400;52.392;9.750;2023-07-30T04:33:16;100297.00;;;18.17;100.00
30636;BME280;17400;52.392;9.750;2023-07-30T04:35:45;100298.63;;;18.18;100.00
30636;BME280;17400;52.392;9.750;2023-07-30T04:38:12;100298.69;;;18.23;100.00
30636;BME280;17400;52.392;9.750;2023-07-30T04:40:40;100293.78;;;18.25;100.00
30636;BME280;17400;52.392;9.750;2023-07-30T04:43:08;100297.06;;;18.27;100.00
30636;BME280;17400;52.392;9.750;2023-07-30T04:45:36;100298.69;;;18.23;100.00
30636;BME280;17400;52.392;9.750;2023-07-30T04:48:06;100300.34;;;18.24;100.00
30636;BME280;17400;52.392;9.750;2023-07-30T04:50:34;100307.22;;;18.26;100.00
30636;BME280;17400;52.392;9.750;2023-07-30T04:53:02;100311.31;;;18.24;100.00
30636;BME280;17400;52.392;9.750;2023-07-30T04:55:29;100308.56;;;18.24;100.00
30636;BME280;17400;52.392;9.750;2023-07-30T04:57:57;100306.41;;;18.26;100.00
30636;BME280;17400;52.392;9.750;2023-07-30T05:00:25;100303.13;;;18.29;100.00
30636;BME280;17400;52.392;9.750;2023-07-30T05:02:53;100301.53;;;18.33;100.00
30636;BME280;17400;52.392;9.750;2023-07-30T05:05:22;100302.94;;;18.36;100.00
30636;BME280;17400;52.392;9.750;2023-07-30T05:07:51;100296.91;;;18.39;100.00
30636;BME280;17400;52.392;9.750;2023-07-30T05:10:19;100298.03;;;18.43;100.00
30636;BME280;17400;52.392;9.750;2023-07-30T05:12:47;100297.22;;;18.42;100.00
30636;BME280;17400;52.392;9.750;2023-07-30T05:15:14;100296.41;;;18.42;100.00
30636;BME280;17400;52.392;9.750;2023-07-30T05:17:42;100296.16;;;18.43;100.00
30636;BME280;17400;52.392;9.750;2023-07-30T05:20:11;100306.59;;;18.46;100.00
30636;BME280;17400;52.392;9.750;2023-07-30T05:22:40;100299.22;;;18.47;100.00
30636;BME280;17400;52.392;9.750;2023-07-30T05:25:08;100303.28;;;18.44;100.00
30636;BME280;17400;52.392;9.750;2023-07-30T05:27:37;100307.94;;;18.44;100.00
30636;BME280;17400;52.392;9.750;2023-07-30T05:30:06;100304.69;;;18.47;100.00
30636;BME280;17400;52.392;9.750;2023-07-30T05:32:34;100304.69;;;18.47;100.00
30636;BME280;17400;52.392;9.750;2023-07-30T05:35:03;100302.25;;;18.51;100.00
30636;BME280;17400;52.392;9.750;2023-07-30T05:37:35;100304.97;;;18.51;100.00
30636;BME280;17400;52.392;9.750;2023-07-30T05:40:08;100307.00;;;18.60;100.00
30636;BME280;17400;52.392;9.750;2023-07-30T05:42:36;100305.06;;;18.61;100.00
30636;BME280;17400;52.392;9.750;2023-07-30T05:45:04;100296.59;;;18.62;100.00
30636;BME280;17400;52.392;9.750;2023-07-30T05:47:32;100295.59;;;18.74;100.00
30636;BME280;17400;52.392;9.750;2023-07-30T05:50:01;100291.53;;;18.81;100.00
30636;BME280;17400;52.392;9.750;2023-07-30T05:52:29;100289.16;;;18.90;100.00
30636;BME280;17400;52.392;9.750;2023-07-30T05:54:57;100295.97;;;18.88;100.00
30636;BME280;17400;52.392;9.750;2023-07-30T05:57:26;100290.81;;;18.91;100.00
30636;BME280;17400;52.392;9.750;2023-07-30T05:59:55;100304.03;;;19.00;100.00
30636;BME280;17400;52.392;9.750;2023-07-30T06:02:22;100306.81;;;19.05;100.00
30636;BME280;17400;52.392;9.750;2023-07-30T06:04:50;100307.16;;;19.13;100.00
30636;BME280;17400;52.392;9.750;2023-07-30T06:07:18;100305.00;;;19.21;100.00
30636;BME280;17400;52.392;9.750;2023-07-30T06:09:46;100302.25;;;19.21;100.00
30636;BME280;17400;52.392;9.750;2023-07-30T06:12:14;100301.44;;;19.20;100.00
30636;BME280;17400;52.392;9.750;2023-07-30T06:14:43;100298.38;;;19.17;100.00
30636;BME280;17400;52.392;9.750;2023-07-30T06:17:11;100302.88;;;19.28;100.00
30636;BME280;17400;52.392;9.750;2023-07-30T06:19:39;100303.97;;;19.32;100.00
30636;BME280;17400;52.392;9.750;2023-07-30T06:22:07;100296.75;;;19.21;100.00
30636;BME280;17400;52.392;9.750;2023-07-30T06:24:36;100300.03;;;19.18;100.00
30636;BME280;17400;52.392;9.750;2023-07-30T06:27:04;100300.13;;;19.28;100.00
30636;BME280;17400;52.392;9.750;2023-07-30T06:29:32;100289.63;;;19.73;100.00
30636;BME280;17400;52.392;9.750;2023-07-30T06:32:02;100289.91;;;19.71;100.00
30636;BME280;17400;52.392;9.750;2023-07-30T06:34:30;100296.91;;;20.05;100.00
30636;BME280;17400;52.392;9.750;2023-07-30T06:36:59;100293.66;;;20.28;100.00
30636;BME280;17400;52.392;9.750;2023-07-30T06:39:27;100296.69;;;20.53;99.63
30636;BME280;17400;52.392;9.750;2023-07-30T06:41:55;100300.56;;;20.41;99.67
30636;BME280;17400;52.392;9.750;2023-07-30T06:44:22;100301.63;;;20.25;100.00
30636;BME280;17400;52.392;9.750;2023-07-30T06:46:51;100307.09;;;20.25;100.00
30636;BME280;17400;52.392;9.750;2023-07-30T06:49:21;100313.69;;;20.08;100.00
30636;BME280;17400;52.392;9.750;2023-07-30T06:51:49;100308.72;;;20.10;100.00
30636;BME280;17400;52.392;9.750;2023-07-30T06:54:17;100316.44;;;20.19;100.00
30636;BME280;17400;52.392;9.750;2023-07-30T06:56:45;100319.41;;;20.07;98.38
30636;BME280;17400;52.392;9.750;2023-07-30T06:59:13;100315.91;;;20.17;97.47
30636;BME280;17400;52.392;9.750;2023-07-30T07:01:41;100317.59;;;20.43;96.65
30636;BME280;17400;52.392;9.750;2023-07-30T07:04:09;100324.75;;;20.50;95.06
30636;BME280;17400;52.392;9.750;2023-07-30T07:06:39;100318.13;;;20.56;94.06
30636;BME280;17400;52.392;9.750;2023-07-30T07:09:07;100320.09;;;20.60;92.40
30636;BME280;17400;52.392;9.750;2023-07-30T07:11:36;100325.06;;;20.74;92.31
30636;BME280;17400;52.392;9.750;2023-07-30T07:14:05;100325.63;;;20.81;89.57
30636;BME280;17400;52.392;9.750;2023-07-30T07:16:33;100324.22;;;20.84;90.13
30636;BME280;17400;52.392;9.750;2023-07-30T07:19:01;100328.63;;;20.90;90.33
30636;BME280;17400;52.392;9.750;2023-07-30T07:21:29;100324.22;;;20.84;87.58
30636;BME280;17400;52.392;9.750;2023-07-30T07:23:58;100320.38;;;20.74;89.09
30636;BME280;17400;52.392;9.750;2023-07-30T07:26:26;100324.22;;;20.63;89.09
30636;BME280;17400;52.392;9.750;2023-07-30T07:28:55;100325.84;;;20.54;87.55
30636;BME280;17400;52.392;9.750;2023-07-30T07:31:23;100330.22;;;20.39;87.80
30636;BME280;17400;52.392;9.750;2023-07-30T07:33:51;100343.94;;;20.24;87.28
30636;BME280;17400;52.392;9.750;2023-07-30T07:36:19;100342.78;;;20.09;86.77
30636;BME280;17400;52.392;9.750;2023-07-30T07:38:47;100344.47;;;20.21;87.45
30636;BME280;17400;52.392;9.750;2023-07-30T07:41:17;100340.66;;;20.32;86.19
30636;BME280;17400;52.392;9.750;2023-07-30T07:43:46;100337.91;;;20.37;85.57
30636;BME280;17400;52.392;9.750;2023-07-30T07:46:15;100342.34;;;20.43;85.66
30636;BME280;17400;52.392;9.750;2023-07-30T07:48:43;100342.91;;;20.66;86.10
30636;BME280;17400;52.392;9.750;2023-07-30T07:51:12;100332.75;;;20.72;84.71
30636;BME280;17400;52.392;9.750;2023-07-30T07:53:40;100335.22;;;20.84;84.79
30636;BME280;17400;52.392;9.750;2023-07-30T07:56:11;100333.56;;;21.03;84.38
30636;BME280;17400;52.392;9.750;2023-07-30T07:58:42;100328.06;;;21.13;84.54
30636;BME280;17400;52.392;9.750;2023-07-30T08:01:11;100331.63;;;21.29;83.42
30636;BME280;17400;52.392;9.750;2023-07-30T08:03:39;100331.63;;;21.35;81.69
30636;BME280;17400;52.392;9.750;2023-07-30T08:06:07;100328.03;;;21.34;82.00
30636;BME280;17400;52.392;9.750;2023-07-30T08:08:35;100319.78;;;21.29;81.78
30636;BME280;17400;52.392;9.750;2023-07-30T08:11:06;100327.78;;;21.20;79.84
30636;BME280;17400;52.392;9.750;2023-07-30T08:13:35;100333.28;;;21.30;82.08
30636;BME280;17400;52.392;9.750;2023-07-30T08:16:05;100330.25;;;21.32;81.82
30636;BME280;17400;52.392;9.750;2023-07-30T08:18:33;100335.16;;;21.40;80.60
30636;BME280;17400;52.392;9.750;2023-07-30T08:21:01;100334.88;;;21.42;80.30
30636;BME280;17400;52.392;9.750;2023-07-30T08:23:29;100338.47;;;21.42;80.23
30636;BME280;17400;52.392;9.750;2023-07-30T08:25:57;100338.50;;;21.37;80.37
30636;BME280;17400;52.392;9.750;2023-07-30T08:28:25;100331.31;;;21.41;80.54
30636;BME280;17400;52.392;9.750;2023-07-30T08:30:59;100327.47;;;21.47;80.21
30636;BME280;17400;52.392;9.750;2023-07-30T08:33:30;100319.22;;;21.32;80.39
30636;BME280;17400;52.392;9.750;2023-07-30T08:35:58;100319.50;;;21.41;80.30
30636;BME280;17400;52.392;9.750;2023-07-30T08:38:27;100323.63;;;21.43;80.02
30636;BME280;17400;52.392;9.750;2023-07-30T08:40:56;100322.50;;;21.44;79.86
30636;BME280;17400;52.392;9.750;2023-07-30T08:43:24;100323.06;;;21.57;80.37
30636;BME280;17400;52.392;9.750;2023-07-30T08:45:52;100321.41;;;21.56;80.74
30636;BME280;17400;52.392;9.750;2023-07-30T08:48:21;100320.28;;;21.62;80.31
30636;BME280;17400;52.392;9.750;2023-07-30T08:50:50;100312.84;;;21.57;79.90
30636;BME280;17400;52.392;9.750;2023-07-30T08:53:19;100317.81;;;21.60;80.22
30636;BME280;17400;52.392;9.750;2023-07-30T08:55:47;100322.47;;;21.65;78.07
30636;BME280;17400;52.392;9.750;2023-07-30T08:58:15;100326.88;;;21.71;77.14
30636;BME280;17400;52.392;9.750;2023-07-30T09:00:44;100315.28;;;21.74;78.58
30636;BME280;17400;52.392;9.750;2023-07-30T09:03:16;100307.50;;;21.82;76.74
30636;BME280;17400;52.392;9.750;2023-07-30T09:05:45;100320.22;;;21.77;77.64
30636;BME280;17400;52.392;9.750;2023-07-30T09:08:14;100317.41;;;21.88;77.48
30636;BME280;17400;52.392;9.750;2023-07-30T09:10:42;100319.38;;;21.82;76.76
30636;BME280;17400;52.392;9.750;2023-07-30T09:13:10;100324.88;;;21.87;78.01
30636;BME280;17400;52.392;9.750;2023-07-30T09:15:38;100325.63;;;21.98;76.47
30636;BME280;17400;52.392;9.750;2023-07-30T09:18:07;100330.56;;;22.01;76.62
30636;BME280;17400;52.392;9.750;2023-07-30T09:20:40;100322.31;;;22.01;77.08
30636;BME280;17400;52.392;9.750;2023-07-30T09:23:09;100330.34;;;21.98;76.87
30636;BME280;17400;52.392;9.750;2023-07-30T09:25:39;100330.53;;;22.11;76.77
30636;BME280;17400;52.392;9.750;2023-07-30T09:28:10;100339.28;;;22.24;75.28
30636;BME280;17400;52.392;9.750;2023-07-30T09:30:39;100331.53;;;22.36;75.44
30636;BME280;17400;52.392;9.750;2023-07-30T09:33:07;100331.19;;;22.43;75.43
30636;BME280;17400;52.392;9.750;2023-07-30T09:35:35;100334.78;;;22.43;74.57
30636;BME280;17400;52.392;9.750;2023-07-30T09:38:03;100338.88;;;22.51;75.68
30636;BME280;17400;52.392;9.750;2023-07-30T09:40:33;100348.78;;;22.52;75.57
30636;BME280;17400;52.392;9.750;2023-07-30T09:43:03;100357.41;;;22.40;75.55
30636;BME280;17400;52.392;9.750;2023-07-30T09:45:34;100348.06;;;22.36;75.02
30636;BME280;17400;52.392;9.750;2023-07-30T09:48:04;100351.94;;;22.25;75.40
30636;BME280;17400;52.392;9.750;2023-07-30T09:50:33;100358.56;;;22.24;75.96
30636;BME280;17400;52.392;9.750;2023-07-30T09:53:03;100361.00;;;22.41;75.68
30636;BME280;17400;52.392;9.750;2023-07-30T09:55:32;100358.63;;;22.63;74.44
30636;BME280;17400;52.392;9.750;2023-07-30T09:58:00;100370.75;;;22.68;73.27
30636;BME280;17400;52.392;9.750;2023-07-30T10:00:29;100356.75;;;22.59;73.68
30636;BME280;17400;52.392;9.750;2023-07-30T10:02:58;100359.47;;;22.64;73.31
30636;BME280;17400;52.392;9.750;2023-07-30T10:05:32;100376.84;;;22.65;73.35
30636;BME280;17400;52.392;9.750;2023-07-30T10:08:05;100374.53;;;22.37;74.50
30636;BME280;17400;52.392;9.750;2023-07-30T10:10:34;100377.84;;;22.29;76.70
30636;BME280;17400;52.392;9.750;2023-07-30T10:13:05;100383.97;;;22.16;76.70
30636;BME280;17400;52.392;9.750;2023-07-30T10:15:37;100382.41;;;21.99;78.40
30636;BME280;17400;52.392;9.750;2023-07-30T10:18:06;100378.63;;;21.79;78.65
30636;BME280;17400;52.392;9.750;2023-07-30T10:20:35;100379.72;;;21.84;78.84
30636;BME280;17400;52.392;9.750;2023-07-30T10:23:04;100381.88;;;21.87;78.85
30636;BME280;17400;52.392;9.750;2023-07-30T10:25:43;100389.28;;;22.02;78.68
30636;BME280;17400;52.392;9.750;2023-07-30T10:28:26;100387.34;;;22.02;78.22
30636;BME280;17400;52.392;9.750;2023-07-30T10:30:57;100402.78;;;22.08;78.80
30636;BME280;17400;52.392;9.750;2023-07-30T10:33:43;100396.22;;;21.94;79.09
30636;BME280;17400;52.392;9.750;2023-07-30T10:36:12;100399.78;;;21.94;79.47
30636;BME280;17400;52.392;9.750;2023-07-30T10:38:40;100406.66;;;21.97;80.40
30636;BME280;17400;52.392;9.750;2023-07-30T10:41:15;100413.31;;;21.91;80.41
30636;BME280;17400;52.392;9.750;2023-07-30T10:43:46;100415.22;;;21.95;80.25
30636;BME280;17400;52.392;9.750;2023-07-30T10:46:17;100413.25;;;22.01;80.39
30636;BME280;17400;52.392;9.750;2023-07-30T10:48:47;100414.94;;;21.92;80.99
30636;BME280;17400;52.392;9.750;2023-07-30T10:51:17;100418.72;;;22.11;81.20
30636;BME280;17400;52.392;9.750;2023-07-30T10:53:46;100417.06;;;22.10;81.03
30636;BME280;17400;52.392;9.750;2023-07-30T10:56:16;100422.34;;;22.07;80.69
30636;BME280;17400;52.392;9.750;2023-07-30T10:58:49;100423.81;;;21.78;81.83
30636;BME280;17400;52.392;9.750;2023-07-30T11:01:19;100426.31;;;21.70;83.20
30636;BME280;17400;52.392;9.750;2023-07-30T11:03:50;100421.06;;;21.63;83.99
30636;BME280;17400;52.392;9.750;2023-07-30T11:06:22;100413.66;;;21.63;85.09
30636;BME280;17400;52.392;9.750;2023-07-30T11:08:50;100407.88;;;21.60;85.34
30636;BME280;17400;52.392;9.750;2023-07-30T11:11:18;100422.75;;;21.43;85.79
30636;BME280;17400;52.392;9.750;2023-07-30T11:13:47;100405.66;;;21.41;85.98
30636;BME280;17400;52.392;9.750;2023-07-30T11:16:16;100409.50;;;21.45;86.54
30636;BME280;17400;52.392;9.750;2023-07-30T11:18:46;100409.50;;;21.51;85.90
30636;BME280;17400;52.392;9.750;2023-07-30T11:21:16;100405.94;;;21.50;85.52
30636;BME280;17400;52.392;9.750;2023-07-30T11:23:45;100410.06;;;21.63;85.65
30636;BME280;17400;52.392;9.750;2023-07-30T11:26:15;100408.97;;;21.64;85.37
30636;BME280;17400;52.392;9.750;2023-07-30T11:28:44;100397.91;;;21.74;84.71
30636;BME280;17400;52.392;9.750;2023-07-30T11:31:13;100405.63;;;21.77;84.23
30636;BME280;17400;52.392;9.750;2023-07-30T11:33:43;100406.66;;;21.92;83.79
30636;BME280;17400;52.392;9.750;2023-07-30T11:36:14;100408.53;;;22.12;83.06
30636;BME280;17400;52.392;9.750;2023-07-30T11:38:44;100395.63;;;21.97;83.87
30636;BME280;17400;52.392;9.750;2023-07-30T11:41:14;100402.03;;;21.87;83.74
30636;BME280;17400;52.392;9.750;2023-07-30T11:43:44;100408.34;;;21.88;83.60
30636;BME280;17400;52.392;9.750;2023-07-30T11:46:14;100404.50;;;21.89;82.23
30636;BME280;17400;52.392;9.750;2023-07-30T11:48:44;100395.72;;;21.76;82.22
30636;BME280;17400;52.392;9.750;2023-07-30T11:51:21;100385.25;;;21.73;82.42
30636;BME280;17400;52.392;9.750;2023-07-30T11:53:52;100394.06;;;21.70;81.41
30636;BME280;17400;52.392;9.750;2023-07-30T11:56:22;100397.91;;;21.79;81.67
30636;BME280;17400;52.392;9.750;2023-07-30T11:58:54;100390.69;;;21.94;79.87
30636;BME280;17400;52.392;9.750;2023-07-30T12:01:25;100398.34;;;22.12;78.11
30636;BME280;17400;52.392;9.750;2023-07-30T12:03:54;100394.16;;;22.25;77.63
30636;BME280;17400;52.392;9.750;2023-07-30T12:06:38;100383.91;;;22.36;77.70
30636;BME280;17400;52.392;9.750;2023-07-30T12:09:11;100384.94;;;22.51;77.18
30636;BME280;17400;52.392;9.750;2023-07-30T12:11:47;100386.97;;;22.79;76.26
30636;BME280;17400;52.392;9.750;2023-07-30T12:14:15;100387.06;;;22.99;74.52
30636;BME280;17400;52.392;9.750;2023-07-30T12:16:43;100385.69;;;23.01;73.45
30636;BME280;17400;52.392;9.750;2023-07-30T12:19:11;100387.16;;;22.88;73.37
30636;BME280;17400;52.392;9.750;2023-07-30T12:21:41;100389.53;;;23.00;73.09
30636;BME280;17400;52.392;9.750;2023-07-30T12:24:12;100385.72;;;22.96;70.86
30636;BME280;17400;52.392;9.750;2023-07-30T12:26:40;100387.75;;;22.85;70.94
30636;BME280;17400;52.392;9.750;2023-07-30T12:29:08;100388.72;;;23.00;71.67
30636;BME280;17400;52.392;9.750;2023-07-30T12:31:36;100381.31;;;22.95;69.94
30636;BME280;17400;52.392;9.750;2023-07-30T12:34:05;100380.00;;;22.82;68.33
30636;BME280;17400;52.392;9.750;2023-07-30T12:36:34;100383.53;;;22.93;68.04
30636;BME280;17400;52.392;9.750;2023-07-30T12:39:03;100382.97;;;22.96;64.77
30636;BME280;17400;52.392;9.750;2023-07-30T12:41:32;100373.47;;;23.07;62.29
30636;BME280;17400;52.392;9.750;2023-07-30T12:44:00;100367.31;;;23.21;63.07
30636;BME280;17400;52.392;9.750;2023-07-30T12:46:30;100366.47;;;23.20;62.60
30636;BME280;17400;52.392;9.750;2023-07-30T12:48:59;100371.31;;;22.99;62.24
30636;BME280;17400;52.392;9.750;2023-07-30T12:51:30;100367.81;;;22.88;62.49
30636;BME280;17400;52.392;9.750;2023-07-30T12:53:58;100364.28;;;22.83;61.67